MSC2977 EDDF-HEMA
Flight info
| Callsign | MSC2977 |
|---|---|
| Flight time | N/A |
| Altitude | 35000 |
| Route | CINDY5L CINDY Z74 LAMPU DCT NOMBO Y161 MAH DCT VAVOR DCT RADIZ DCT GORPA DCT EVTON DCT MEDUX UM867 KOGAT DCT ERANA UL737 TSL UN130 MES UL609 RDS UL995 VANZA DCT RASDA/N0453F370 A16 CVO A727 LXR M999 ELELI V730 MAK DCT |
| Aircraft | A320/M-SDE3FGHIRWY/LB1 |
Departure
| Time | 2026-04-16 09:09 |
|---|---|
| Airport | Frankfurt Main Airport (EDDF) |
Arrival
| Time | N/A |
|---|---|
| Airport | Marsa Alam International Airport (HEMA) |
| Time | Latitude | Longitude | Altitude | Speed | Heading |
|---|---|---|---|---|---|
| 2026-04-16 08:19 | 50.04855 | 8.58898 | 367 ft | 0 kts | 340° |
| 2026-04-16 08:38 | 50.04855 | 8.58899 | 365 ft | 0 kts | 340° |
| 2026-04-16 08:53 | 50.04848 | 8.58902 | 365 ft | 4 kts | 340° |
| 2026-04-16 08:54 | 50.04823 | 8.58917 | 368 ft | 4 kts | 340° |
| 2026-04-16 08:54 | 50.04797 | 8.58931 | 367 ft | 4 kts | 340° |
| 2026-04-16 08:54 | 50.04776 | 8.58943 | 369 ft | 0 kts | 340° |
| 2026-04-16 08:54 | 50.04776 | 8.58944 | 369 ft | 0 kts | 340° |
| 2026-04-16 08:58 | 50.04786 | 8.58916 | 367 ft | 4 kts | 260° |
| 2026-04-16 08:58 | 50.04766 | 8.58879 | 368 ft | 5 kts | 227° |
| 2026-04-16 08:58 | 50.04739 | 8.58831 | 371 ft | 5 kts | 232° |
| 2026-04-16 08:59 | 50.04722 | 8.58768 | 370 ft | 11 kts | 250° |
| 2026-04-16 08:59 | 50.04689 | 8.58635 | 372 ft | 14 kts | 248° |
| 2026-04-16 08:59 | 50.04655 | 8.58490 | 371 ft | 15 kts | 250° |
| 2026-04-16 08:59 | 50.04619 | 8.58335 | 368 ft | 16 kts | 249° |
| 2026-04-16 09:00 | 50.04576 | 8.58161 | 365 ft | 19 kts | 250° |
| 2026-04-16 09:00 | 50.04571 | 8.58046 | 361 ft | 10 kts | 309° |
| 2026-04-16 09:00 | 50.04639 | 8.57999 | 360 ft | 11 kts | 340° |
| 2026-04-16 09:00 | 50.04707 | 8.57952 | 362 ft | 9 kts | 317° |
| 2026-04-16 09:01 | 50.04676 | 8.57764 | 360 ft | 11 kts | 250° |
| 2026-04-16 09:01 | 50.04645 | 8.57637 | 357 ft | 16 kts | 249° |
| 2026-04-16 09:01 | 50.04603 | 8.57463 | 358 ft | 18 kts | 250° |
| 2026-04-16 09:02 | 50.04559 | 8.57279 | 357 ft | 19 kts | 249° |
| 2026-04-16 09:02 | 50.04514 | 8.57088 | 364 ft | 19 kts | 250° |
| 2026-04-16 09:02 | 50.04468 | 8.56894 | 363 ft | 18 kts | 250° |
| 2026-04-16 09:02 | 50.04422 | 8.56701 | 360 ft | 20 kts | 249° |
| 2026-04-16 09:03 | 50.04372 | 8.56494 | 359 ft | 21 kts | 249° |
| 2026-04-16 09:03 | 50.04319 | 8.56274 | 357 ft | 22 kts | 249° |
| 2026-04-16 09:03 | 50.04263 | 8.56045 | 358 ft | 23 kts | 249° |
| 2026-04-16 09:03 | 50.04206 | 8.55807 | 354 ft | 24 kts | 249° |
| 2026-04-16 09:04 | 50.04147 | 8.55561 | 359 ft | 25 kts | 250° |
| 2026-04-16 09:04 | 50.04090 | 8.55313 | 355 ft | 24 kts | 250° |
| 2026-04-16 09:04 | 50.04032 | 8.55072 | 359 ft | 24 kts | 249° |
| 2026-04-16 09:04 | 50.03973 | 8.54827 | 354 ft | 25 kts | 249° |
| 2026-04-16 09:05 | 50.03910 | 8.54571 | 349 ft | 26 kts | 249° |
| 2026-04-16 09:05 | 50.03859 | 8.54373 | 353 ft | 14 kts | 243° |
| 2026-04-16 09:05 | 50.03802 | 8.54235 | 347 ft | 16 kts | 245° |
| 2026-04-16 09:05 | 50.03763 | 8.54069 | 345 ft | 17 kts | 249° |
| 2026-04-16 09:06 | 50.03720 | 8.53889 | 350 ft | 18 kts | 250° |
| 2026-04-16 09:06 | 50.03673 | 8.53694 | 345 ft | 20 kts | 249° |
| 2026-04-16 09:06 | 50.03621 | 8.53488 | 337 ft | 21 kts | 248° |
| 2026-04-16 09:06 | 50.03569 | 8.53270 | 339 ft | 22 kts | 249° |
| 2026-04-16 09:07 | 50.03513 | 8.53042 | 336 ft | 23 kts | 249° |
| 2026-04-16 09:07 | 50.03457 | 8.52823 | 334 ft | 20 kts | 247° |
| 2026-04-16 09:07 | 50.03416 | 8.52655 | 334 ft | 15 kts | 250° |
| 2026-04-16 09:07 | 50.03365 | 8.52592 | 335 ft | 10 kts | 182° |
| 2026-04-16 09:08 | 50.03257 | 8.52596 | 333 ft | 29 kts | 179° |
| 2026-04-16 09:08 | 50.02807 | 8.52597 | 335 ft | 97 kts | 180° |
| 2026-04-16 09:08 | 50.01942 | 8.52606 | 333 ft | 150 kts | 180° |
| 2026-04-16 09:08 | 50.00801 | 8.52616 | 632 ft | 166 kts | 180° |
| 2026-04-16 09:09 | 49.99660 | 8.52669 | 1320 ft | 164 kts | 181° |
| 2026-04-16 09:09 | 49.98489 | 8.52745 | 1908 ft | 174 kts | 181° |
| 2026-04-16 09:09 | 49.97236 | 8.52795 | 2249 ft | 189 kts | 181° |
| 2026-04-16 09:09 | 49.95858 | 8.52843 | 2542 ft | 207 kts | 180° |
| 2026-04-16 09:10 | 49.94336 | 8.52948 | 2775 ft | 230 kts | 179° |
| 2026-04-16 09:10 | 49.92756 | 8.53088 | 3478 ft | 230 kts | 177° |
| 2026-04-16 09:10 | 49.91154 | 8.53265 | 4292 ft | 231 kts | 177° |
| 2026-04-16 09:10 | 49.89551 | 8.53605 | 4951 ft | 240 kts | 162° |
| 2026-04-16 09:11 | 49.88134 | 8.55063 | 5416 ft | 255 kts | 132° |
| 2026-04-16 09:11 | 49.86987 | 8.57278 | 5925 ft | 268 kts | 130° |
| 2026-04-16 09:11 | 49.85818 | 8.59552 | 6684 ft | 272 kts | 130° |
| 2026-04-16 09:11 | 49.84638 | 8.61859 | 7407 ft | 274 kts | 129° |
| 2026-04-16 09:12 | 49.83454 | 8.64190 | 8077 ft | 280 kts | 129° |
| 2026-04-16 09:12 | 49.82230 | 8.66612 | 8621 ft | 290 kts | 128° |
| 2026-04-16 09:12 | 49.80960 | 8.69146 | 9264 ft | 297 kts | 128° |
| 2026-04-16 09:12 | 49.79676 | 8.71662 | 10035 ft | 298 kts | 129° |
| 2026-04-16 09:13 | 49.78366 | 8.74145 | 10519 ft | 310 kts | 129° |
| 2026-04-16 09:13 | 49.76945 | 8.76811 | 10670 ft | 333 kts | 129° |
| 2026-04-16 09:13 | 49.75427 | 8.79661 | 10797 ft | 354 kts | 129° |
| 2026-04-16 09:13 | 49.73817 | 8.82701 | 10945 ft | 374 kts | 129° |
| 2026-04-16 09:14 | 49.72154 | 8.85854 | 11375 ft | 382 kts | 129° |
| 2026-04-16 09:14 | 49.70468 | 8.89067 | 11938 ft | 387 kts | 129° |
| 2026-04-16 09:14 | 49.68767 | 8.92315 | 12504 ft | 391 kts | 129° |
| 2026-04-16 09:14 | 49.67048 | 8.95598 | 13080 ft | 395 kts | 130° |
| 2026-04-16 09:15 | 49.65310 | 8.98920 | 13632 ft | 400 kts | 130° |
| 2026-04-16 09:15 | 49.63554 | 9.02277 | 14188 ft | 404 kts | 130° |
| 2026-04-16 09:15 | 49.61780 | 9.05658 | 14695 ft | 407 kts | 130° |
| 2026-04-16 09:15 | 49.59990 | 9.09057 | 15196 ft | 410 kts | 130° |
| 2026-04-16 09:16 | 49.58181 | 9.12483 | 15714 ft | 413 kts | 130° |
| 2026-04-16 09:16 | 49.56357 | 9.15930 | 16234 ft | 417 kts | 130° |
| 2026-04-16 09:16 | 49.54516 | 9.19402 | 16733 ft | 420 kts | 130° |
| 2026-04-16 09:16 | 49.52661 | 9.22896 | 17234 ft | 423 kts | 130° |
| 2026-04-16 09:17 | 49.50789 | 9.26417 | 17723 ft | 427 kts | 130° |
| 2026-04-16 09:17 | 49.48903 | 9.29963 | 18210 ft | 430 kts | 130° |
| 2026-04-16 09:17 | 49.47004 | 9.33532 | 18664 ft | 433 kts | 131° |
| 2026-04-16 09:17 | 49.45086 | 9.37133 | 19063 ft | 436 kts | 131° |
| 2026-04-16 09:18 | 49.43167 | 9.40767 | 19453 ft | 439 kts | 130° |
| 2026-04-16 09:18 | 49.41251 | 9.44443 | 19839 ft | 443 kts | 130° |
| 2026-04-16 09:18 | 49.39330 | 9.48158 | 20212 ft | 446 kts | 129° |
| 2026-04-16 09:18 | 49.37401 | 9.51899 | 20583 ft | 448 kts | 129° |
| 2026-04-16 09:19 | 49.35457 | 9.55665 | 20947 ft | 451 kts | 130° |
| 2026-04-16 09:19 | 49.33499 | 9.59441 | 21295 ft | 454 kts | 130° |
| 2026-04-16 09:19 | 49.31522 | 9.63237 | 21647 ft | 457 kts | 130° |
| 2026-04-16 09:19 | 49.29533 | 9.67044 | 21988 ft | 459 kts | 130° |
| 2026-04-16 09:20 | 49.27528 | 9.70869 | 22327 ft | 462 kts | 130° |
| 2026-04-16 09:20 | 49.25508 | 9.74718 | 22659 ft | 464 kts | 130° |
| 2026-04-16 09:20 | 49.23479 | 9.78578 | 22987 ft | 467 kts | 130° |
| 2026-04-16 09:20 | 49.21439 | 9.82460 | 23303 ft | 469 kts | 130° |
| 2026-04-16 09:21 | 49.19386 | 9.86364 | 23617 ft | 472 kts | 130° |
| 2026-04-16 09:21 | 49.17324 | 9.90277 | 23900 ft | 474 kts | 130° |
| 2026-04-16 09:21 | 49.15252 | 9.94204 | 24155 ft | 476 kts | 130° |
| 2026-04-16 09:21 | 49.13169 | 9.98144 | 24414 ft | 478 kts | 130° |
| 2026-04-16 09:22 | 49.11075 | 10.02100 | 24668 ft | 479 kts | 130° |
| 2026-04-16 09:22 | 49.09003 | 10.06009 | 24911 ft | 481 kts | 130° |
| 2026-04-16 09:22 | 49.06895 | 10.09978 | 25156 ft | 482 kts | 130° |
| 2026-04-16 09:22 | 49.04779 | 10.13955 | 25404 ft | 484 kts | 130° |
| 2026-04-16 09:23 | 49.02656 | 10.17940 | 25628 ft | 485 kts | 130° |
| 2026-04-16 09:23 | 49.00500 | 10.21986 | 25872 ft | 486 kts | 130° |
| 2026-04-16 09:23 | 48.98366 | 10.25989 | 26114 ft | 487 kts | 130° |
| 2026-04-16 09:23 | 48.96226 | 10.30001 | 26334 ft | 489 kts | 131° |
| 2026-04-16 09:24 | 48.94106 | 10.33963 | 26541 ft | 490 kts | 131° |
| 2026-04-16 09:24 | 48.91948 | 10.37983 | 26746 ft | 491 kts | 131° |
| 2026-04-16 09:24 | 48.89784 | 10.42004 | 26951 ft | 492 kts | 131° |
| 2026-04-16 09:24 | 48.87612 | 10.46034 | 27136 ft | 493 kts | 131° |
| 2026-04-16 09:25 | 48.85437 | 10.50066 | 27323 ft | 494 kts | 131° |
| 2026-04-16 09:25 | 48.83262 | 10.54101 | 27575 ft | 493 kts | 131° |
| 2026-04-16 09:25 | 48.81090 | 10.58126 | 27829 ft | 492 kts | 131° |
| 2026-04-16 09:25 | 48.78927 | 10.62127 | 28126 ft | 490 kts | 131° |
| 2026-04-16 09:26 | 48.76763 | 10.66116 | 28412 ft | 489 kts | 131° |
| 2026-04-16 09:26 | 48.74602 | 10.70092 | 28673 ft | 488 kts | 131° |
| 2026-04-16 09:26 | 48.72445 | 10.74057 | 28932 ft | 488 kts | 131° |
| 2026-04-16 09:26 | 48.70290 | 10.78016 | 29194 ft | 487 kts | 131° |
| 2026-04-16 09:27 | 48.68137 | 10.81962 | 29466 ft | 486 kts | 131° |
| 2026-04-16 09:27 | 48.65983 | 10.85903 | 29727 ft | 485 kts | 132° |
| 2026-04-16 09:27 | 48.63832 | 10.89830 | 29992 ft | 485 kts | 132° |
| 2026-04-16 09:27 | 48.61684 | 10.93749 | 30272 ft | 483 kts | 132° |
| 2026-04-16 09:28 | 48.59541 | 10.97658 | 30523 ft | 482 kts | 132° |
| 2026-04-16 09:28 | 48.57402 | 11.01554 | 30744 ft | 482 kts | 132° |
| 2026-04-16 09:28 | 48.55263 | 11.05441 | 30967 ft | 481 kts | 132° |
| 2026-04-16 09:28 | 48.53845 | 11.08014 | 31102 ft | 481 kts | 132° |
| 2026-04-16 09:29 | 48.51706 | 11.11886 | 31326 ft | 480 kts | 132° |
| 2026-04-16 09:29 | 48.49572 | 11.15744 | 31544 ft | 479 kts | 132° |
| 2026-04-16 09:29 | 48.47437 | 11.19599 | 31774 ft | 479 kts | 133° |
| 2026-04-16 09:29 | 48.45303 | 11.23450 | 31988 ft | 478 kts | 133° |
| 2026-04-16 09:30 | 48.43172 | 11.27296 | 32197 ft | 478 kts | 133° |
| 2026-04-16 09:30 | 48.41044 | 11.31132 | 32421 ft | 477 kts | 133° |
| 2026-04-16 09:30 | 48.38915 | 11.34964 | 32637 ft | 477 kts | 133° |
| 2026-04-16 09:30 | 48.36788 | 11.38785 | 32852 ft | 476 kts | 133° |
| 2026-04-16 09:31 | 48.34658 | 11.42599 | 33061 ft | 476 kts | 133° |
| 2026-04-16 09:31 | 48.32528 | 11.46402 | 33265 ft | 475 kts | 133° |
| 2026-04-16 09:31 | 48.30400 | 11.50200 | 33473 ft | 475 kts | 133° |
| 2026-04-16 09:31 | 48.28273 | 11.53997 | 33680 ft | 475 kts | 133° |
| 2026-04-16 09:32 | 48.26151 | 11.57786 | 33889 ft | 474 kts | 133° |
| 2026-04-16 09:32 | 48.24028 | 11.61567 | 34106 ft | 474 kts | 133° |
| 2026-04-16 09:32 | 48.21904 | 11.65342 | 34290 ft | 473 kts | 133° |
| 2026-04-16 09:32 | 48.19782 | 11.69104 | 34475 ft | 473 kts | 133° |
| 2026-04-16 09:33 | 48.17657 | 11.72865 | 34639 ft | 472 kts | 133° |
| 2026-04-16 09:33 | 48.15535 | 11.76617 | 34810 ft | 472 kts | 133° |
| 2026-04-16 09:33 | 48.13409 | 11.80365 | 34970 ft | 472 kts | 133° |
| 2026-04-16 09:33 | 48.11285 | 11.84111 | 35140 ft | 471 kts | 133° |
| 2026-04-16 09:34 | 48.09167 | 11.87851 | 35249 ft | 472 kts | 133° |
| 2026-04-16 09:34 | 48.04937 | 11.95314 | 35273 ft | 474 kts | 133° |
| 2026-04-16 09:35 | 48.00676 | 12.02812 | 35270 ft | 472 kts | 133° |
| 2026-04-16 09:35 | 47.96417 | 12.10266 | 35268 ft | 472 kts | 133° |
| 2026-04-16 09:36 | 47.91939 | 12.17359 | 35270 ft | 467 kts | 143° |
| 2026-04-16 09:36 | 47.86958 | 12.23572 | 35268 ft | 467 kts | 143° |
| 2026-04-16 09:37 | 47.81983 | 12.29802 | 35264 ft | 467 kts | 143° |
| 2026-04-16 09:37 | 47.77014 | 12.36022 | 35267 ft | 467 kts | 143° |
| 2026-04-16 09:38 | 47.72038 | 12.42214 | 35255 ft | 466 kts | 143° |
| 2026-04-16 09:38 | 47.67063 | 12.48387 | 35255 ft | 466 kts | 143° |
| 2026-04-16 09:39 | 47.62147 | 12.54652 | 35259 ft | 468 kts | 137° |
| 2026-04-16 09:39 | 47.57700 | 12.61722 | 35255 ft | 469 kts | 135° |
| 2026-04-16 09:40 | 47.53284 | 12.68813 | 35240 ft | 468 kts | 136° |
| 2026-04-16 09:40 | 47.48856 | 12.75875 | 35235 ft | 468 kts | 136° |
| 2026-04-16 09:41 | 47.44420 | 12.82904 | 35234 ft | 468 kts | 136° |
| 2026-04-16 09:41 | 47.39985 | 12.89928 | 35235 ft | 467 kts | 136° |
| 2026-04-16 09:42 | 47.35546 | 12.96935 | 35233 ft | 467 kts | 136° |
| 2026-04-16 09:42 | 47.31102 | 13.03926 | 35228 ft | 467 kts | 136° |
| 2026-04-16 09:43 | 47.26651 | 13.10913 | 35216 ft | 468 kts | 136° |
| 2026-04-16 09:43 | 47.22199 | 13.17885 | 35213 ft | 467 kts | 135° |
| 2026-04-16 09:44 | 47.17746 | 13.24849 | 35203 ft | 467 kts | 135° |
| 2026-04-16 09:44 | 47.13287 | 13.31790 | 35207 ft | 467 kts | 135° |
| 2026-04-16 09:45 | 47.08825 | 13.38728 | 35200 ft | 467 kts | 135° |
| 2026-04-16 09:45 | 47.04393 | 13.45589 | 35204 ft | 467 kts | 135° |
| 2026-04-16 09:46 | 46.99925 | 13.52499 | 35192 ft | 467 kts | 135° |
| 2026-04-16 09:46 | 46.95460 | 13.59398 | 35204 ft | 466 kts | 135° |
| 2026-04-16 09:47 | 46.90985 | 13.66269 | 35202 ft | 466 kts | 135° |
| 2026-04-16 09:47 | 46.86509 | 13.73121 | 35201 ft | 466 kts | 135° |
| 2026-04-16 09:48 | 46.82034 | 13.79958 | 35210 ft | 466 kts | 135° |
| 2026-04-16 09:48 | 46.77561 | 13.86792 | 35204 ft | 465 kts | 135° |
| 2026-04-16 09:49 | 46.73085 | 13.93611 | 35206 ft | 465 kts | 135° |
| 2026-04-16 09:49 | 46.68607 | 14.00418 | 35211 ft | 465 kts | 135° |
| 2026-04-16 09:50 | 46.64128 | 14.07205 | 35242 ft | 465 kts | 135° |
| 2026-04-16 09:50 | 46.59640 | 14.13973 | 35240 ft | 465 kts | 135° |
| 2026-04-16 09:51 | 46.55152 | 14.20728 | 35244 ft | 464 kts | 135° |
| 2026-04-16 09:51 | 46.50664 | 14.27474 | 35239 ft | 464 kts | 134° |
| 2026-04-16 09:52 | 46.46181 | 14.34211 | 35236 ft | 464 kts | 134° |
| 2026-04-16 09:52 | 46.41692 | 14.40923 | 35233 ft | 463 kts | 135° |
| 2026-04-16 09:53 | 46.37199 | 14.47598 | 35198 ft | 463 kts | 135° |
| 2026-04-16 09:53 | 46.32739 | 14.54229 | 35191 ft | 462 kts | 134° |
| 2026-04-16 09:54 | 46.28251 | 14.60898 | 35186 ft | 463 kts | 134° |
| 2026-04-16 09:54 | 46.23754 | 14.67555 | 35187 ft | 463 kts | 134° |
| 2026-04-16 09:55 | 46.19256 | 14.74201 | 35196 ft | 462 kts | 134° |
| 2026-04-16 09:55 | 46.14758 | 14.80830 | 35193 ft | 462 kts | 134° |
| 2026-04-16 09:56 | 46.10259 | 14.87436 | 35206 ft | 462 kts | 134° |
| 2026-04-16 09:56 | 46.05760 | 14.94037 | 35195 ft | 461 kts | 134° |
| 2026-04-16 09:57 | 46.01259 | 15.00621 | 35202 ft | 461 kts | 134° |
| 2026-04-16 09:57 | 45.96755 | 15.07186 | 35204 ft | 461 kts | 134° |
| 2026-04-16 09:58 | 45.92249 | 15.13741 | 35207 ft | 461 kts | 134° |
| 2026-04-16 09:58 | 45.87740 | 15.20278 | 35219 ft | 460 kts | 133° |
| 2026-04-16 09:59 | 45.83235 | 15.26799 | 35226 ft | 460 kts | 134° |
| 2026-04-16 09:59 | 45.78763 | 15.33259 | 35227 ft | 459 kts | 134° |
| 2026-04-16 10:00 | 45.74307 | 15.39811 | 35210 ft | 459 kts | 132° |
| 2026-04-16 10:00 | 45.69999 | 15.46546 | 35198 ft | 459 kts | 131° |
| 2026-04-16 10:01 | 45.63569 | 15.56669 | 35207 ft | 458 kts | 131° |
| 2026-04-16 10:01 | 45.59231 | 15.63346 | 35205 ft | 459 kts | 132° |
| 2026-04-16 10:02 | 45.54876 | 15.69997 | 35194 ft | 459 kts | 132° |
| 2026-04-16 10:02 | 45.50523 | 15.76645 | 35202 ft | 458 kts | 132° |
| 2026-04-16 10:03 | 45.46177 | 15.83298 | 35199 ft | 458 kts | 131° |
| 2026-04-16 10:03 | 45.41841 | 15.89928 | 35209 ft | 457 kts | 131° |
| 2026-04-16 10:04 | 45.37507 | 15.96535 | 35208 ft | 456 kts | 131° |
| 2026-04-16 10:04 | 45.33165 | 16.03114 | 35212 ft | 456 kts | 131° |
| 2026-04-16 10:05 | 45.28826 | 16.09685 | 35215 ft | 455 kts | 131° |
| 2026-04-16 10:05 | 45.24499 | 16.16228 | 35211 ft | 454 kts | 131° |
| 2026-04-16 10:06 | 45.20172 | 16.22746 | 35211 ft | 453 kts | 131° |
| 2026-04-16 10:06 | 45.15849 | 16.29243 | 35200 ft | 453 kts | 131° |
| 2026-04-16 10:07 | 45.11527 | 16.35721 | 35214 ft | 452 kts | 131° |
| 2026-04-16 10:07 | 45.07213 | 16.42183 | 35215 ft | 451 kts | 131° |
| 2026-04-16 10:08 | 45.02908 | 16.48617 | 35209 ft | 450 kts | 131° |
| 2026-04-16 10:08 | 44.98603 | 16.55030 | 35207 ft | 450 kts | 131° |
| 2026-04-16 10:09 | 44.94293 | 16.61425 | 35202 ft | 449 kts | 131° |
| 2026-04-16 10:09 | 44.89996 | 16.67796 | 35215 ft | 447 kts | 131° |
| 2026-04-16 10:10 | 44.85736 | 16.74103 | 35209 ft | 446 kts | 131° |
| 2026-04-16 10:10 | 44.81449 | 16.80423 | 35192 ft | 446 kts | 131° |
| 2026-04-16 10:11 | 44.77166 | 16.86735 | 35189 ft | 445 kts | 131° |
| 2026-04-16 10:11 | 44.72887 | 16.93034 | 35195 ft | 445 kts | 131° |
| 2026-04-16 10:12 | 44.68660 | 16.99360 | 35200 ft | 443 kts | 129° |
| 2026-04-16 10:12 | 44.64676 | 17.05939 | 35194 ft | 441 kts | 127° |
| 2026-04-16 10:13 | 44.60767 | 17.12578 | 35184 ft | 441 kts | 127° |
| 2026-04-16 10:13 | 44.56805 | 17.19151 | 35188 ft | 441 kts | 128° |
| 2026-04-16 10:14 | 44.52800 | 17.25671 | 35177 ft | 441 kts | 128° |
| 2026-04-16 10:14 | 44.48783 | 17.32174 | 35171 ft | 441 kts | 128° |
| 2026-04-16 10:15 | 44.44772 | 17.38680 | 35166 ft | 441 kts | 128° |
| 2026-04-16 10:15 | 44.40769 | 17.45187 | 35162 ft | 442 kts | 128° |
| 2026-04-16 10:16 | 44.37433 | 17.50600 | 35158 ft | 442 kts | 129° |
| 2026-04-16 10:16 | 44.33401 | 17.57113 | 35150 ft | 443 kts | 129° |
| 2026-04-16 10:17 | 44.29356 | 17.63620 | 35148 ft | 444 kts | 129° |
| 2026-04-16 10:17 | 44.25303 | 17.70128 | 35149 ft | 444 kts | 129° |
| 2026-04-16 10:18 | 44.21250 | 17.76636 | 35151 ft | 445 kts | 129° |
| 2026-04-16 10:18 | 44.17189 | 17.83144 | 35147 ft | 445 kts | 130° |
| 2026-04-16 10:19 | 44.13113 | 17.89653 | 35141 ft | 447 kts | 130° |
| 2026-04-16 10:19 | 44.09023 | 17.96171 | 35132 ft | 448 kts | 131° |
| 2026-04-16 10:20 | 44.04918 | 18.02688 | 35148 ft | 448 kts | 130° |
| 2026-04-16 10:20 | 44.00806 | 18.09213 | 35136 ft | 450 kts | 131° |
| 2026-04-16 10:21 | 43.96674 | 18.15752 | 35137 ft | 451 kts | 131° |
| 2026-04-16 10:21 | 43.92523 | 18.22288 | 35143 ft | 452 kts | 131° |
| 2026-04-16 10:22 | 43.88371 | 18.28839 | 35141 ft | 453 kts | 132° |
| 2026-04-16 10:22 | 43.84230 | 18.35358 | 35145 ft | 454 kts | 133° |
| 2026-04-16 10:23 | 43.80047 | 18.41925 | 35145 ft | 455 kts | 133° |
| 2026-04-16 10:23 | 43.75845 | 18.48485 | 35149 ft | 456 kts | 133° |
| 2026-04-16 10:24 | 43.71634 | 18.55040 | 35146 ft | 456 kts | 132° |
| 2026-04-16 10:24 | 43.67425 | 18.61598 | 35143 ft | 456 kts | 132° |
| 2026-04-16 10:25 | 43.63208 | 18.68158 | 35141 ft | 457 kts | 133° |
| 2026-04-16 10:25 | 43.58985 | 18.74698 | 35142 ft | 456 kts | 133° |
| 2026-04-16 10:26 | 43.54763 | 18.81219 | 35140 ft | 456 kts | 134° |
| 2026-04-16 10:26 | 43.50541 | 18.87731 | 35144 ft | 455 kts | 133° |
| 2026-04-16 10:27 | 43.46321 | 18.94234 | 35140 ft | 455 kts | 133° |
| 2026-04-16 10:27 | 43.42101 | 19.00720 | 35137 ft | 454 kts | 134° |
| 2026-04-16 10:28 | 43.37887 | 19.07187 | 35138 ft | 454 kts | 134° |
| 2026-04-16 10:28 | 43.33693 | 19.13602 | 35140 ft | 453 kts | 133° |
| 2026-04-16 10:29 | 43.29474 | 19.20029 | 35147 ft | 452 kts | 133° |
| 2026-04-16 10:29 | 43.25263 | 19.26433 | 35147 ft | 452 kts | 134° |
| 2026-04-16 10:30 | 43.21063 | 19.32828 | 35148 ft | 451 kts | 133° |
| 2026-04-16 10:30 | 43.16862 | 19.39210 | 35142 ft | 451 kts | 134° |
| 2026-04-16 10:31 | 43.12649 | 19.45567 | 35139 ft | 451 kts | 133° |
| 2026-04-16 10:31 | 43.08432 | 19.51914 | 35133 ft | 451 kts | 134° |
| 2026-04-16 10:32 | 43.04217 | 19.58255 | 35127 ft | 450 kts | 134° |
| 2026-04-16 10:32 | 42.99999 | 19.64594 | 35127 ft | 451 kts | 134° |
| 2026-04-16 10:33 | 42.95779 | 19.70921 | 35113 ft | 451 kts | 134° |
| 2026-04-16 10:33 | 42.91555 | 19.77232 | 35115 ft | 451 kts | 134° |
| 2026-04-16 10:34 | 42.87322 | 19.83540 | 35125 ft | 450 kts | 134° |
| 2026-04-16 10:34 | 42.83096 | 19.89837 | 35126 ft | 450 kts | 134° |
| 2026-04-16 10:35 | 42.78866 | 19.96119 | 35133 ft | 450 kts | 134° |
| 2026-04-16 10:35 | 42.74630 | 20.02392 | 35130 ft | 450 kts | 134° |
| 2026-04-16 10:36 | 42.70553 | 20.08858 | 35135 ft | 451 kts | 131° |
| 2026-04-16 10:36 | 42.66634 | 20.15511 | 35131 ft | 451 kts | 130° |
| 2026-04-16 10:37 | 42.62729 | 20.22104 | 35133 ft | 451 kts | 131° |
| 2026-04-16 10:37 | 42.58733 | 20.28676 | 35127 ft | 451 kts | 131° |
| 2026-04-16 10:38 | 42.54720 | 20.35222 | 35131 ft | 451 kts | 131° |
| 2026-04-16 10:38 | 42.50709 | 20.41768 | 35134 ft | 451 kts | 131° |
| 2026-04-16 10:39 | 42.46700 | 20.48317 | 35127 ft | 451 kts | 131° |
| 2026-04-16 10:39 | 42.42689 | 20.54861 | 35128 ft | 452 kts | 131° |
| 2026-04-16 10:40 | 42.38674 | 20.61398 | 35136 ft | 452 kts | 131° |
| 2026-04-16 10:40 | 42.34652 | 20.67925 | 35136 ft | 452 kts | 131° |
| 2026-04-16 10:41 | 42.30623 | 20.74439 | 35131 ft | 452 kts | 131° |
| 2026-04-16 10:41 | 42.26590 | 20.80947 | 35131 ft | 452 kts | 132° |
| 2026-04-16 10:42 | 42.22560 | 20.87453 | 35136 ft | 452 kts | 131° |
| 2026-04-16 10:42 | 42.18524 | 20.93943 | 35137 ft | 451 kts | 132° |
| 2026-04-16 10:43 | 42.14477 | 21.00417 | 35135 ft | 451 kts | 132° |
| 2026-04-16 10:43 | 42.10335 | 21.06753 | 35135 ft | 449 kts | 138° |
| 2026-04-16 10:44 | 42.05788 | 21.12530 | 35132 ft | 449 kts | 139° |
| 2026-04-16 10:44 | 42.01240 | 21.18295 | 35135 ft | 449 kts | 139° |
| 2026-04-16 10:45 | 41.96705 | 21.24047 | 35145 ft | 448 kts | 139° |
| 2026-04-16 10:45 | 41.92174 | 21.29776 | 35149 ft | 447 kts | 139° |
| 2026-04-16 10:46 | 41.87645 | 21.35490 | 35146 ft | 447 kts | 139° |
| 2026-04-16 10:46 | 41.83115 | 21.41193 | 35144 ft | 446 kts | 139° |
| 2026-04-16 10:47 | 41.78588 | 21.46884 | 35142 ft | 446 kts | 139° |
| 2026-04-16 10:47 | 41.74067 | 21.52562 | 35146 ft | 445 kts | 139° |
| 2026-04-16 10:48 | 41.69546 | 21.58215 | 35149 ft | 444 kts | 139° |
| 2026-04-16 10:48 | 41.65060 | 21.63808 | 35150 ft | 444 kts | 139° |
| 2026-04-16 10:49 | 41.60546 | 21.69434 | 35143 ft | 443 kts | 139° |
| 2026-04-16 10:49 | 41.56033 | 21.75053 | 35147 ft | 443 kts | 139° |
| 2026-04-16 10:50 | 41.51524 | 21.80656 | 35127 ft | 443 kts | 139° |
| 2026-04-16 10:50 | 41.47014 | 21.86245 | 35134 ft | 442 kts | 139° |
| 2026-04-16 10:51 | 41.42506 | 21.91814 | 35133 ft | 442 kts | 139° |
| 2026-04-16 10:51 | 41.38001 | 21.97381 | 35143 ft | 442 kts | 139° |
| 2026-04-16 10:52 | 41.33497 | 22.02936 | 35140 ft | 441 kts | 139° |
| 2026-04-16 10:52 | 41.28988 | 22.08479 | 35135 ft | 441 kts | 139° |
| 2026-04-16 10:53 | 41.24509 | 22.13970 | 35122 ft | 441 kts | 140° |
| 2026-04-16 10:53 | 41.20003 | 22.19482 | 35142 ft | 440 kts | 140° |
| 2026-04-16 10:54 | 41.15492 | 22.24963 | 35148 ft | 439 kts | 141° |
| 2026-04-16 10:54 | 41.10804 | 22.30147 | 35138 ft | 438 kts | 143° |
| 2026-04-16 10:55 | 41.06021 | 22.35143 | 35139 ft | 438 kts | 144° |
| 2026-04-16 10:55 | 41.01253 | 22.40157 | 35124 ft | 437 kts | 143° |
| 2026-04-16 10:56 | 40.96519 | 22.45217 | 35136 ft | 437 kts | 143° |
| 2026-04-16 10:56 | 40.91796 | 22.50293 | 35129 ft | 437 kts | 143° |
| 2026-04-16 10:57 | 40.87072 | 22.55355 | 35122 ft | 437 kts | 143° |
| 2026-04-16 10:57 | 40.82339 | 22.60395 | 35123 ft | 437 kts | 143° |
| 2026-04-16 10:58 | 40.77600 | 22.65429 | 35126 ft | 437 kts | 143° |
| 2026-04-16 10:58 | 40.72864 | 22.70458 | 35115 ft | 437 kts | 143° |
| 2026-04-16 10:59 | 40.68125 | 22.75477 | 35119 ft | 437 kts | 143° |
| 2026-04-16 10:59 | 40.63386 | 22.80487 | 35114 ft | 437 kts | 143° |
| 2026-04-16 11:00 | 40.58642 | 22.85493 | 35098 ft | 437 kts | 143° |
| 2026-04-16 11:00 | 40.53890 | 22.90502 | 35103 ft | 438 kts | 143° |
| 2026-04-16 11:01 | 40.49134 | 22.95504 | 35101 ft | 438 kts | 143° |
| 2026-04-16 11:01 | 40.44514 | 23.00723 | 35100 ft | 440 kts | 135° |
| 2026-04-16 11:02 | 40.40310 | 23.06566 | 35108 ft | 440 kts | 135° |
| 2026-04-16 11:02 | 40.36096 | 23.12388 | 35099 ft | 440 kts | 135° |
| 2026-04-16 11:03 | 40.31913 | 23.18171 | 35117 ft | 440 kts | 135° |
| 2026-04-16 11:04 | 40.25592 | 23.26873 | 35109 ft | 439 kts | 135° |
| 2026-04-16 11:04 | 40.21372 | 23.32664 | 35103 ft | 439 kts | 135° |
| 2026-04-16 11:05 | 40.17151 | 23.38446 | 35111 ft | 439 kts | 136° |
| 2026-04-16 11:05 | 40.12933 | 23.44215 | 35110 ft | 439 kts | 136° |
| 2026-04-16 11:06 | 40.09424 | 23.48996 | 35116 ft | 438 kts | 136° |
| 2026-04-16 11:06 | 40.05211 | 23.54739 | 35112 ft | 438 kts | 136° |
| 2026-04-16 11:07 | 40.00999 | 23.60483 | 35110 ft | 438 kts | 136° |
| 2026-04-16 11:07 | 39.96784 | 23.66210 | 35109 ft | 438 kts | 136° |
| 2026-04-16 11:08 | 39.92563 | 23.71924 | 35096 ft | 437 kts | 136° |
| 2026-04-16 11:08 | 39.88344 | 23.77628 | 35112 ft | 437 kts | 136° |
| 2026-04-16 11:09 | 39.84132 | 23.83310 | 35117 ft | 435 kts | 136° |
| 2026-04-16 11:09 | 39.79930 | 23.88967 | 35116 ft | 435 kts | 136° |
| 2026-04-16 11:10 | 39.75729 | 23.94619 | 35116 ft | 434 kts | 136° |
| 2026-04-16 11:10 | 39.71532 | 24.00252 | 35113 ft | 434 kts | 136° |
| 2026-04-16 11:11 | 39.67328 | 24.05874 | 35105 ft | 434 kts | 136° |
| 2026-04-16 11:11 | 39.63134 | 24.11484 | 35102 ft | 433 kts | 136° |
| 2026-04-16 11:12 | 39.58973 | 24.17050 | 35109 ft | 432 kts | 137° |
| 2026-04-16 11:12 | 39.54790 | 24.22634 | 35110 ft | 431 kts | 137° |
| 2026-04-16 11:13 | 39.50603 | 24.28191 | 35102 ft | 431 kts | 137° |
| 2026-04-16 11:13 | 39.46420 | 24.33742 | 35099 ft | 430 kts | 137° |
| 2026-04-16 11:14 | 39.42237 | 24.39283 | 35088 ft | 430 kts | 137° |
| 2026-04-16 11:14 | 39.38057 | 24.44818 | 35084 ft | 430 kts | 137° |
| 2026-04-16 11:15 | 39.33870 | 24.50337 | 35078 ft | 430 kts | 137° |
| 2026-04-16 11:15 | 39.29700 | 24.55875 | 35079 ft | 430 kts | 136° |
| 2026-04-16 11:16 | 39.25556 | 24.61447 | 35080 ft | 430 kts | 136° |
| 2026-04-16 11:16 | 39.21412 | 24.67003 | 35070 ft | 429 kts | 137° |
| 2026-04-16 11:17 | 39.17255 | 24.72533 | 35066 ft | 429 kts | 137° |
| 2026-04-16 11:17 | 39.13099 | 24.78057 | 35057 ft | 429 kts | 137° |
| 2026-04-16 11:18 | 39.08937 | 24.83566 | 35057 ft | 429 kts | 137° |
| 2026-04-16 11:18 | 39.04741 | 24.89019 | 35056 ft | 429 kts | 137° |
| 2026-04-16 11:19 | 39.00526 | 24.94447 | 35057 ft | 429 kts | 137° |
| 2026-04-16 11:19 | 38.96318 | 24.99877 | 35058 ft | 429 kts | 137° |
| 2026-04-16 11:20 | 38.92114 | 25.05310 | 35037 ft | 429 kts | 137° |
| 2026-04-16 11:20 | 38.87911 | 25.10739 | 35038 ft | 429 kts | 137° |
| 2026-04-16 11:21 | 38.83699 | 25.16163 | 35030 ft | 429 kts | 137° |
| 2026-04-16 11:21 | 38.79488 | 25.21580 | 35031 ft | 429 kts | 137° |
| 2026-04-16 11:22 | 38.75266 | 25.26988 | 35022 ft | 429 kts | 138° |
| 2026-04-16 11:22 | 38.71044 | 25.32387 | 35022 ft | 429 kts | 137° |
| 2026-04-16 11:23 | 38.66820 | 25.37796 | 35012 ft | 430 kts | 137° |
| 2026-04-16 11:23 | 38.62590 | 25.43203 | 35004 ft | 430 kts | 137° |
| 2026-04-16 11:24 | 38.58340 | 25.48601 | 35007 ft | 431 kts | 138° |
| 2026-04-16 11:24 | 38.54090 | 25.53995 | 35004 ft | 431 kts | 138° |
| 2026-04-16 11:25 | 38.49864 | 25.59356 | 35003 ft | 431 kts | 138° |
| 2026-04-16 11:25 | 38.45612 | 25.64754 | 34989 ft | 431 kts | 138° |
| 2026-04-16 11:26 | 38.41322 | 25.70191 | 34987 ft | 432 kts | 138° |
| 2026-04-16 11:26 | 38.37045 | 25.75584 | 34990 ft | 433 kts | 138° |
| 2026-04-16 11:27 | 38.32798 | 25.80944 | 34983 ft | 433 kts | 138° |
| 2026-04-16 11:27 | 38.28526 | 25.86345 | 34981 ft | 433 kts | 138° |
| 2026-04-16 11:28 | 38.24240 | 25.91727 | 34977 ft | 432 kts | 139° |
| 2026-04-16 11:28 | 38.19767 | 25.96828 | 34969 ft | 432 kts | 142° |
| 2026-04-16 11:29 | 38.15179 | 26.01760 | 34966 ft | 433 kts | 142° |
| 2026-04-16 11:29 | 38.10596 | 26.06727 | 34967 ft | 433 kts | 142° |
| 2026-04-16 11:30 | 38.06052 | 26.11749 | 34976 ft | 433 kts | 141° |
| 2026-04-16 11:30 | 38.01521 | 26.16789 | 34981 ft | 433 kts | 141° |
| 2026-04-16 11:31 | 37.96977 | 26.21806 | 34988 ft | 433 kts | 142° |
| 2026-04-16 11:31 | 37.92423 | 26.26807 | 34970 ft | 433 kts | 142° |
| 2026-04-16 11:32 | 37.87865 | 26.31799 | 34973 ft | 433 kts | 142° |
| 2026-04-16 11:32 | 37.83300 | 26.36786 | 34975 ft | 434 kts | 142° |
| 2026-04-16 11:33 | 37.78727 | 26.41760 | 34969 ft | 434 kts | 142° |
| 2026-04-16 11:33 | 37.74151 | 26.46731 | 34973 ft | 434 kts | 142° |
| 2026-04-16 11:34 | 37.69580 | 26.51708 | 34962 ft | 434 kts | 142° |
| 2026-04-16 11:34 | 37.65008 | 26.56675 | 34954 ft | 434 kts | 142° |
| 2026-04-16 11:35 | 37.60430 | 26.61651 | 34946 ft | 435 kts | 142° |
| 2026-04-16 11:35 | 37.55843 | 26.66627 | 34940 ft | 435 kts | 142° |
| 2026-04-16 11:36 | 37.51247 | 26.71596 | 34942 ft | 436 kts | 142° |
| 2026-04-16 11:36 | 37.46638 | 26.76569 | 34940 ft | 436 kts | 142° |
| 2026-04-16 11:37 | 37.42062 | 26.81499 | 34942 ft | 436 kts | 142° |
| 2026-04-16 11:37 | 37.37489 | 26.86534 | 34946 ft | 437 kts | 140° |
| 2026-04-16 11:38 | 37.33085 | 26.91834 | 34928 ft | 439 kts | 139° |
| 2026-04-16 11:38 | 37.28707 | 26.97204 | 34928 ft | 440 kts | 139° |
| 2026-04-16 11:39 | 37.24284 | 27.02528 | 34927 ft | 441 kts | 140° |
| 2026-04-16 11:39 | 37.19829 | 27.07813 | 34932 ft | 441 kts | 140° |
| 2026-04-16 11:40 | 37.15370 | 27.13092 | 34932 ft | 441 kts | 140° |
| 2026-04-16 11:40 | 37.10912 | 27.18371 | 34924 ft | 441 kts | 140° |
| 2026-04-16 11:41 | 37.06456 | 27.23647 | 34927 ft | 441 kts | 140° |
| 2026-04-16 11:41 | 37.01995 | 27.28919 | 34929 ft | 441 kts | 140° |
| 2026-04-16 11:42 | 36.97537 | 27.34186 | 34933 ft | 441 kts | 140° |
| 2026-04-16 11:42 | 36.93074 | 27.39445 | 34929 ft | 441 kts | 140° |
| 2026-04-16 11:43 | 36.88607 | 27.44690 | 34935 ft | 441 kts | 140° |
| 2026-04-16 11:43 | 36.84145 | 27.49938 | 34914 ft | 441 kts | 140° |
| 2026-04-16 11:44 | 36.79665 | 27.55192 | 34914 ft | 442 kts | 141° |
| 2026-04-16 11:44 | 36.75170 | 27.60440 | 34903 ft | 443 kts | 141° |
| 2026-04-16 11:45 | 36.70666 | 27.65696 | 34904 ft | 444 kts | 141° |
| 2026-04-16 11:45 | 36.66157 | 27.70961 | 34910 ft | 444 kts | 141° |
| 2026-04-16 11:46 | 36.61676 | 27.76186 | 34918 ft | 444 kts | 141° |
| 2026-04-16 11:46 | 36.57162 | 27.81432 | 34928 ft | 444 kts | 141° |
| 2026-04-16 11:47 | 36.52648 | 27.86658 | 34924 ft | 443 kts | 141° |
| 2026-04-16 11:47 | 36.48141 | 27.91883 | 34924 ft | 443 kts | 141° |
| 2026-04-16 11:48 | 36.43639 | 27.97100 | 34923 ft | 443 kts | 141° |
| 2026-04-16 11:48 | 36.39127 | 28.02297 | 34921 ft | 442 kts | 141° |
| 2026-04-16 11:49 | 36.34613 | 28.07492 | 34907 ft | 443 kts | 141° |
| 2026-04-16 11:49 | 36.30253 | 28.12926 | 34899 ft | 446 kts | 137° |
| 2026-04-16 11:50 | 36.26105 | 28.18646 | 34903 ft | 446 kts | 136° |
| 2026-04-16 11:50 | 36.21992 | 28.24339 | 34904 ft | 446 kts | 137° |
| 2026-04-16 11:51 | 36.17791 | 28.29980 | 34910 ft | 445 kts | 137° |
| 2026-04-16 11:51 | 36.13561 | 28.35576 | 34912 ft | 445 kts | 137° |
| 2026-04-16 11:52 | 36.09331 | 28.41182 | 34898 ft | 446 kts | 137° |
| 2026-04-16 11:52 | 36.05104 | 28.46800 | 34898 ft | 447 kts | 137° |
| 2026-04-16 11:53 | 36.00868 | 28.52418 | 34899 ft | 447 kts | 137° |
| 2026-04-16 11:53 | 35.97343 | 28.57082 | 34895 ft | 447 kts | 138° |
| 2026-04-16 11:54 | 35.93098 | 28.62692 | 34899 ft | 447 kts | 138° |
| 2026-04-16 11:54 | 35.88853 | 28.68284 | 34888 ft | 447 kts | 138° |
| 2026-04-16 11:55 | 35.84470 | 28.73714 | 34886 ft | 446 kts | 141° |
| 2026-04-16 11:55 | 35.79950 | 28.78944 | 34886 ft | 446 kts | 142° |
| 2026-04-16 11:56 | 35.75421 | 28.84169 | 34891 ft | 446 kts | 141° |
| 2026-04-16 11:56 | 35.70925 | 28.89445 | 34891 ft | 447 kts | 141° |
| 2026-04-16 11:57 | 35.66437 | 28.94739 | 34885 ft | 447 kts | 141° |
| 2026-04-16 11:57 | 35.61943 | 29.00027 | 34876 ft | 448 kts | 141° |
| 2026-04-16 11:58 | 35.57435 | 29.05312 | 34868 ft | 448 kts | 141° |
| 2026-04-16 11:58 | 35.52914 | 29.10585 | 34874 ft | 449 kts | 141° |
| 2026-04-16 11:59 | 35.48387 | 29.15858 | 34874 ft | 449 kts | 141° |
| 2026-04-16 11:59 | 35.43860 | 29.21137 | 34870 ft | 449 kts | 141° |
| 2026-04-16 12:00 | 35.39331 | 29.26410 | 34854 ft | 449 kts | 141° |
| 2026-04-16 12:00 | 35.34796 | 29.31691 | 34859 ft | 450 kts | 141° |
| 2026-04-16 12:01 | 35.30256 | 29.36970 | 34858 ft | 450 kts | 141° |
| 2026-04-16 12:01 | 35.25712 | 29.42230 | 34866 ft | 449 kts | 141° |
| 2026-04-16 12:02 | 35.18894 | 29.50098 | 34867 ft | 449 kts | 142° |
| 2026-04-16 12:02 | 35.14377 | 29.55298 | 34855 ft | 449 kts | 142° |
| 2026-04-16 12:03 | 35.09826 | 29.60531 | 34853 ft | 450 kts | 142° |
| 2026-04-16 12:03 | 35.05266 | 29.65773 | 34851 ft | 450 kts | 142° |
| 2026-04-16 12:04 | 35.00714 | 29.71020 | 34844 ft | 450 kts | 141° |
| 2026-04-16 12:04 | 34.96152 | 29.76253 | 34850 ft | 450 kts | 141° |
| 2026-04-16 12:05 | 34.91624 | 29.81534 | 34856 ft | 451 kts | 141° |
| 2026-04-16 12:05 | 34.87110 | 29.86843 | 34842 ft | 451 kts | 141° |
| 2026-04-16 12:06 | 34.82578 | 29.92138 | 34845 ft | 452 kts | 141° |
| 2026-04-16 12:06 | 34.78026 | 29.97418 | 34845 ft | 452 kts | 142° |
| 2026-04-16 12:07 | 34.72938 | 30.01676 | 34850 ft | 440 kts | 159° |
| 2026-04-16 12:07 | 34.67418 | 30.04896 | 34825 ft | 441 kts | 159° |
| 2026-04-16 12:08 | 34.61883 | 30.08137 | 34825 ft | 442 kts | 159° |
| 2026-04-16 12:08 | 34.56327 | 30.11380 | 34826 ft | 443 kts | 159° |
| 2026-04-16 12:09 | 34.50760 | 30.14629 | 34828 ft | 445 kts | 159° |
| 2026-04-16 12:09 | 34.45179 | 30.17876 | 34823 ft | 445 kts | 159° |
| 2026-04-16 12:10 | 34.39588 | 30.21117 | 34830 ft | 446 kts | 159° |
| 2026-04-16 12:10 | 34.33991 | 30.24361 | 34831 ft | 446 kts | 159° |
| 2026-04-16 12:11 | 34.28387 | 30.27602 | 34835 ft | 446 kts | 159° |
| 2026-04-16 12:11 | 34.22788 | 30.30845 | 34828 ft | 446 kts | 159° |
| 2026-04-16 12:12 | 34.17181 | 30.34079 | 34817 ft | 447 kts | 159° |
| 2026-04-16 12:12 | 34.11558 | 30.37317 | 34811 ft | 448 kts | 159° |
| 2026-04-16 12:13 | 34.05920 | 30.40563 | 34805 ft | 450 kts | 160° |
| 2026-04-16 12:13 | 34.00263 | 30.43808 | 34807 ft | 451 kts | 160° |
| 2026-04-16 12:14 | 33.94594 | 30.47056 | 34807 ft | 451 kts | 160° |
| 2026-04-16 12:14 | 33.88921 | 30.50315 | 34797 ft | 452 kts | 161° |
| 2026-04-16 12:15 | 33.83227 | 30.53565 | 34797 ft | 454 kts | 161° |
| 2026-04-16 12:15 | 33.77515 | 30.56821 | 34802 ft | 455 kts | 161° |
| 2026-04-16 12:16 | 33.71797 | 30.60087 | 34804 ft | 455 kts | 161° |
| 2026-04-16 12:16 | 33.66107 | 30.63328 | 34802 ft | 456 kts | 161° |
| 2026-04-16 12:17 | 33.60373 | 30.66589 | 34787 ft | 456 kts | 161° |
| 2026-04-16 12:17 | 33.54643 | 30.69852 | 34795 ft | 456 kts | 162° |
| 2026-04-16 12:18 | 33.48904 | 30.73091 | 34796 ft | 456 kts | 162° |
| 2026-04-16 12:18 | 33.43168 | 30.76338 | 34799 ft | 456 kts | 162° |
| 2026-04-16 12:19 | 33.37437 | 30.79596 | 34796 ft | 456 kts | 162° |
| 2026-04-16 12:19 | 33.31700 | 30.82833 | 34788 ft | 456 kts | 162° |
| 2026-04-16 12:20 | 33.25956 | 30.86054 | 34790 ft | 456 kts | 162° |
| 2026-04-16 12:20 | 33.20211 | 30.89283 | 34786 ft | 456 kts | 162° |
| 2026-04-16 12:21 | 33.14465 | 30.92518 | 34787 ft | 456 kts | 162° |
| 2026-04-16 12:21 | 33.08588 | 30.95043 | 34780 ft | 441 kts | 177° |
| 2026-04-16 12:22 | 33.02575 | 30.95848 | 34774 ft | 434 kts | 183° |
| 2026-04-16 12:22 | 32.96556 | 30.96529 | 34766 ft | 435 kts | 183° |
| 2026-04-16 12:23 | 32.90525 | 30.97212 | 34769 ft | 436 kts | 183° |
| 2026-04-16 12:23 | 32.84487 | 30.97885 | 34759 ft | 436 kts | 183° |
| 2026-04-16 12:24 | 32.78445 | 30.98543 | 34764 ft | 436 kts | 183° |
| 2026-04-16 12:24 | 32.72444 | 30.99211 | 34775 ft | 436 kts | 183° |
| 2026-04-16 12:25 | 32.66402 | 30.99883 | 34778 ft | 436 kts | 183° |
| 2026-04-16 12:25 | 32.60361 | 31.00548 | 34765 ft | 436 kts | 183° |
| 2026-04-16 12:26 | 32.54323 | 31.01223 | 34769 ft | 436 kts | 183° |
| 2026-04-16 12:26 | 32.48285 | 31.01892 | 34772 ft | 436 kts | 183° |
| 2026-04-16 12:27 | 32.42249 | 31.02563 | 34770 ft | 436 kts | 183° |
| 2026-04-16 12:27 | 32.36211 | 31.03233 | 34753 ft | 436 kts | 184° |
| 2026-04-16 12:28 | 32.30176 | 31.03900 | 34752 ft | 436 kts | 184° |
| 2026-04-16 12:28 | 32.24141 | 31.04562 | 34756 ft | 436 kts | 184° |
| 2026-04-16 12:29 | 32.18103 | 31.05217 | 34759 ft | 436 kts | 184° |
| 2026-04-16 12:29 | 32.12066 | 31.05876 | 34739 ft | 436 kts | 184° |
| 2026-04-16 12:30 | 32.06029 | 31.06545 | 34747 ft | 436 kts | 184° |
| 2026-04-16 12:30 | 31.99989 | 31.07214 | 34749 ft | 436 kts | 184° |
| 2026-04-16 12:31 | 31.93996 | 31.07854 | 34749 ft | 436 kts | 184° |
| 2026-04-16 12:31 | 31.87959 | 31.08499 | 34755 ft | 436 kts | 184° |
| 2026-04-16 12:32 | 31.81924 | 31.09150 | 34751 ft | 436 kts | 184° |
| 2026-04-16 12:32 | 31.75887 | 31.09800 | 34751 ft | 436 kts | 184° |
| 2026-04-16 12:33 | 31.69847 | 31.10448 | 34742 ft | 436 kts | 184° |
| 2026-04-16 12:33 | 31.63811 | 31.11096 | 34722 ft | 436 kts | 184° |
| 2026-04-16 12:34 | 31.57773 | 31.11745 | 34728 ft | 436 kts | 184° |
| 2026-04-16 12:34 | 31.51728 | 31.12413 | 34725 ft | 437 kts | 182° |
| 2026-04-16 12:35 | 31.45676 | 31.13447 | 34730 ft | 441 kts | 179° |
| 2026-04-16 12:35 | 31.39618 | 31.14700 | 34703 ft | 442 kts | 179° |
| 2026-04-16 12:36 | 31.33563 | 31.15911 | 34704 ft | 441 kts | 179° |
| 2026-04-16 12:36 | 31.27508 | 31.17045 | 34710 ft | 441 kts | 180° |
| 2026-04-16 12:37 | 31.21448 | 31.18155 | 34709 ft | 441 kts | 180° |
| 2026-04-16 12:37 | 31.15385 | 31.19278 | 34709 ft | 441 kts | 180° |
| 2026-04-16 12:38 | 31.09320 | 31.20414 | 34691 ft | 441 kts | 180° |
| 2026-04-16 12:38 | 31.03253 | 31.21543 | 34694 ft | 442 kts | 180° |
| 2026-04-16 12:39 | 30.98206 | 31.22476 | 34696 ft | 442 kts | 180° |
| 2026-04-16 12:39 | 30.92135 | 31.23603 | 34691 ft | 442 kts | 180° |
| 2026-04-16 12:40 | 30.85072 | 31.24917 | 34665 ft | 442 kts | 180° |
| 2026-04-16 12:40 | 30.79974 | 31.25862 | 34670 ft | 443 kts | 180° |
| 2026-04-16 12:41 | 30.73882 | 31.26982 | 34678 ft | 444 kts | 180° |
| 2026-04-16 12:41 | 30.67777 | 31.28100 | 34682 ft | 444 kts | 180° |
| 2026-04-16 12:42 | 30.61672 | 31.29228 | 34670 ft | 444 kts | 180° |
| 2026-04-16 12:42 | 30.55565 | 31.30357 | 34676 ft | 445 kts | 180° |
| 2026-04-16 12:43 | 30.49453 | 31.31477 | 34681 ft | 445 kts | 180° |
| 2026-04-16 12:43 | 30.43338 | 31.32596 | 34686 ft | 445 kts | 180° |
| 2026-04-16 12:44 | 30.37226 | 31.33724 | 34666 ft | 445 kts | 180° |
| 2026-04-16 12:44 | 30.31108 | 31.34852 | 34684 ft | 445 kts | 180° |
| 2026-04-16 12:45 | 30.24991 | 31.35969 | 34679 ft | 445 kts | 180° |
| 2026-04-16 12:45 | 30.18908 | 31.37081 | 34684 ft | 445 kts | 180° |
| 2026-04-16 12:46 | 30.12788 | 31.38201 | 34676 ft | 446 kts | 180° |
| 2026-04-16 12:46 | 30.06683 | 31.39691 | 34678 ft | 454 kts | 173° |
| 2026-04-16 12:47 | 30.00570 | 31.41728 | 34690 ft | 454 kts | 173° |
| 2026-04-16 12:47 | 29.94538 | 31.43736 | 34690 ft | 454 kts | 173° |
| 2026-04-16 12:48 | 29.88461 | 31.45755 | 34690 ft | 454 kts | 173° |
| 2026-04-16 12:48 | 29.82388 | 31.47767 | 34683 ft | 454 kts | 173° |
| 2026-04-16 12:49 | 29.76310 | 31.49771 | 34687 ft | 454 kts | 173° |
| 2026-04-16 12:49 | 29.70233 | 31.51771 | 34695 ft | 455 kts | 173° |
| 2026-04-16 12:50 | 29.64145 | 31.53776 | 34695 ft | 455 kts | 173° |
| 2026-04-16 12:50 | 29.58053 | 31.55766 | 34678 ft | 455 kts | 173° |
| 2026-04-16 12:51 | 29.51950 | 31.57749 | 34693 ft | 456 kts | 173° |
| 2026-04-16 12:51 | 29.45846 | 31.59750 | 34699 ft | 457 kts | 172° |
| 2026-04-16 12:52 | 29.39737 | 31.61756 | 34703 ft | 457 kts | 173° |
| 2026-04-16 12:52 | 29.33623 | 31.63742 | 34711 ft | 457 kts | 173° |
| 2026-04-16 12:53 | 29.27508 | 31.65724 | 34706 ft | 457 kts | 173° |
| 2026-04-16 12:53 | 29.21393 | 31.67707 | 34709 ft | 457 kts | 173° |
| 2026-04-16 12:54 | 29.15282 | 31.69704 | 34712 ft | 457 kts | 173° |
| 2026-04-16 12:54 | 29.09169 | 31.71689 | 34710 ft | 457 kts | 173° |
| 2026-04-16 12:55 | 29.03050 | 31.73665 | 34697 ft | 457 kts | 173° |
| 2026-04-16 12:55 | 28.96935 | 31.75633 | 34697 ft | 457 kts | 173° |
| 2026-04-16 12:56 | 28.90808 | 31.77586 | 34698 ft | 457 kts | 173° |
| 2026-04-16 12:56 | 28.84724 | 31.79520 | 34701 ft | 457 kts | 173° |
| 2026-04-16 12:57 | 28.78595 | 31.81467 | 34667 ft | 457 kts | 173° |
| 2026-04-16 12:57 | 28.72463 | 31.83424 | 34680 ft | 457 kts | 173° |
| 2026-04-16 12:58 | 28.66329 | 31.85376 | 34684 ft | 458 kts | 173° |
| 2026-04-16 12:58 | 28.60185 | 31.87321 | 34697 ft | 458 kts | 173° |
| 2026-04-16 12:59 | 28.54037 | 31.89259 | 34704 ft | 458 kts | 173° |
| 2026-04-16 13:00 | 28.44814 | 31.92168 | 34695 ft | 459 kts | 173° |
| 2026-04-16 13:00 | 28.38661 | 31.94105 | 34707 ft | 459 kts | 173° |
| 2026-04-16 13:01 | 28.32505 | 31.96045 | 34710 ft | 459 kts | 173° |
| 2026-04-16 13:01 | 28.26350 | 31.97980 | 34715 ft | 459 kts | 173° |
| 2026-04-16 13:02 | 28.20189 | 31.99911 | 34699 ft | 459 kts | 173° |
| 2026-04-16 13:02 | 28.14025 | 32.01845 | 34705 ft | 460 kts | 173° |
| 2026-04-16 13:03 | 28.07860 | 32.03781 | 34713 ft | 460 kts | 173° |
| 2026-04-16 13:03 | 28.01694 | 32.05710 | 34715 ft | 460 kts | 173° |
| 2026-04-16 13:04 | 27.95528 | 32.07680 | 34684 ft | 461 kts | 172° |
| 2026-04-16 13:04 | 27.89402 | 32.09653 | 34698 ft | 461 kts | 172° |
| 2026-04-16 13:05 | 27.83227 | 32.11624 | 34704 ft | 461 kts | 172° |
| 2026-04-16 13:05 | 27.77044 | 32.13592 | 34710 ft | 462 kts | 172° |
| 2026-04-16 13:06 | 27.70859 | 32.15551 | 34711 ft | 462 kts | 172° |
| 2026-04-16 13:06 | 27.64669 | 32.17515 | 34704 ft | 462 kts | 172° |
| 2026-04-16 13:07 | 27.58479 | 32.19486 | 34703 ft | 462 kts | 172° |
| 2026-04-16 13:07 | 27.52282 | 32.21458 | 34701 ft | 463 kts | 172° |
| 2026-04-16 13:08 | 27.46090 | 32.23429 | 34705 ft | 463 kts | 172° |
| 2026-04-16 13:08 | 27.39934 | 32.25380 | 34687 ft | 463 kts | 172° |
| 2026-04-16 13:09 | 27.33734 | 32.27340 | 34690 ft | 463 kts | 172° |